Aviation Digital Data Service (ADDS)

Output produced by METARs form (0951 UTC 11 May 2021)
found at http://www.aviationweather.gov/metar/data/
 
KGSO 110531Z 1106/1206 01006KT P6SM BKN060 
     FM112000 24005KT P6SM BKN100